Terminal Aerodrome Forecast
Issued by NWS Wakefield, VA

Home | Current Version | Previous Version | Text Only | Print | Product List | Glossary On
Versions: 1 2 3 4 5 6 7 8 9 10 11 12 13 14 15
000
FTUS41 KAKQ 241300 AAA
TAFECG
TAF AMD
KECG 241325Z 2413/2512 20012G22KT P6SM SCT008 BKN070
     FM241500 21012G18KT P6SM SCT020 BKN035
     FM242200 20010KT P6SM BKN030=

USA.gov is the U.S. government's official web portal to all federal, state and local government web resources and services.